Time;durP1;ratioP1;P1;durP2;ratioP2;P2;SDS_P1;SDS_P2;PMS_P1;PMS_P2;Temp;Humidity;BMP_temperature;BMP_pressure;BME280_temperature;BME280_humidity;BME280_pressure;Samples;Min_cycle;Max_cycle;Signal;HPM_P1;HPM_P2
2022/10/19 00:00:24;;;;;;;22.90;9.10;;;;;;;9.02;100.00;102562.75;5055363;28;20041;-81
2022/10/19 00:02:50;;;;;;;32.28;10.07;;;;;;;9.00;100.00;102560.06;5045009;28;20045;-80
2022/10/19 00:05:15;;;;;;;26.95;9.48;;;;;;;8.94;100.00;102562.19;5060724;28;20028;-81
2022/10/19 00:07:41;;;;;;;15.80;8.48;;;;;;;8.83;100.00;102551.75;5062858;28;20036;-81
2022/10/19 00:10:07;;;;;;;17.38;8.85;;;;;;;8.80;100.00;102552.75;5062338;28;20048;-80
2022/10/19 00:12:33;;;;;;;16.20;8.73;;;;;;;8.88;100.00;102546.06;5026859;28;20492;-80
2022/10/19 00:14:58;;;;;;;24.10;9.52;;;;;;;8.77;100.00;102543.81;5045954;28;20029;-82
2022/10/19 00:17:23;;;;;;;25.05;9.35;;;;;;;8.78;100.00;102538.28;5028592;28;20034;-79
2022/10/19 00:19:49;;;;;;;21.08;9.38;;;;;;;8.76;100.00;102534.75;5060919;28;20041;-80
2022/10/19 00:22:15;;;;;;;27.88;9.52;;;;;;;8.73;100.00;102540.34;5059791;28;20067;-80
2022/10/19 00:24:40;;;;;;;25.25;10.25;;;;;;;8.67;100.00;102537.88;5037711;28;20033;-81
2022/10/19 00:27:06;;;;;;;18.77;9.40;;;;;;;8.57;100.00;102539.22;5045381;28;20037;-81
2022/10/19 00:29:31;;;;;;;30.52;10.60;;;;;;;8.56;100.00;102534.72;5064618;28;20137;-80
2022/10/19 00:31:57;;;;;;;27.52;10.13;;;;;;;8.49;100.00;102535.94;5045270;28;20044;-81
2022/10/19 00:34:23;;;;;;;28.10;10.82;;;;;;;8.53;100.00;102543.94;5059487;28;20037;-81
2022/10/19 00:36:48;;;;;;;38.92;14.98;;;;;;;8.60;100.00;102537.25;5045665;28;20044;-81
2022/10/19 00:39:15;;;;;;;43.28;17.45;;;;;;;8.71;100.00;102544.97;5028076;28;20139;-80
2022/10/19 00:41:42;;;;;;;36.72;18.17;;;;;;;8.70;100.00;102536.84;5058194;28;20024;-81
2022/10/19 00:44:10;;;;;;;52.90;22.05;;;;;;;8.70;100.00;102539.59;5061043;28;20032;-80
2022/10/19 00:46:50;;;;;;;49.72;22.40;;;;;;;8.73;100.00;102544.91;5049202;28;20099;-81
2022/10/19 00:49:29;;;;;;;45.33;21.98;;;;;;;8.62;100.00;102537.19;5060238;28;20113;-80
2022/10/19 00:52:00;;;;;;;40.65;21.48;;;;;;;8.57;100.00;102541.97;5040652;28;20511;-80
2022/10/19 00:54:26;;;;;;;52.10;22.83;;;;;;;8.65;100.00;102545.25;5063546;28;20036;-80
2022/10/19 00:56:55;;;;;;;47.60;22.63;;;;;;;8.64;100.00;102541.63;5064146;28;20064;-81
2022/10/19 00:59:24;;;;;;;42.78;22.35;;;;;;;8.66;100.00;102536.09;5059814;28;20044;-80
2022/10/19 01:01:51;;;;;;;45.90;23.27;;;;;;;8.60;100.00;102520.88;5074755;28;20068;-80
2022/10/19 01:04:20;;;;;;;42.13;23.38;;;;;;;8.57;100.00;102542.84;5055832;28;20025;-80
2022/10/19 01:06:46;;;;;;;45.28;21.13;;;;;;;8.51;100.00;102544.94;5053892;28;20037;-81
2022/10/19 01:09:11;;;;;;;37.72;18.77;;;;;;;8.50;100.00;102540.47;5049326;28;20036;-80
2022/10/19 01:12:25;;;;;;;34.95;17.83;;;;;;;8.43;100.00;102535.25;5028511;28;20052;-81
2022/10/19 01:15:08;;;;;;;33.40;17.00;;;;;;;8.50;100.00;102541.34;4991315;28;20041;-80
2022/10/19 01:17:43;;;;;;;35.60;15.90;;;;;;;8.52;100.00;102531.22;5059421;28;20887;-80
2022/10/19 01:20:46;;;;;;;39.72;15.25;;;;;;;8.41;100.00;102526.22;5044879;28;20598;-80
2022/10/19 01:23:58;;;;;;;36.47;15.23;;;;;;;8.46;100.00;102523.31;5059989;28;20076;-81
2022/10/19 01:26:45;;;;;;;29.73;13.15;;;;;;;8.27;100.00;102521.34;5057930;28;20511;-79
2022/10/19 01:29:48;;;;;;;32.58;13.85;;;;;;;8.35;100.00;102529.22;5056270;28;20036;-80
2022/10/19 01:32:28;;;;;;;34.30;14.17;;;;;;;8.34;100.00;102524.69;5060031;28;20090;-80
2022/10/19 01:35:06;;;;;;;33.25;13.60;;;;;;;8.36;100.00;102527.34;5060064;28;20044;-80
2022/10/19 01:37:51;;;;;;;29.90;13.05;;;;;;;8.37;100.00;102518.22;5058543;28;20116;-79
2022/10/19 01:40:36;;;;;;;28.95;12.50;;;;;;;8.41;100.00;102518.03;5060189;28;20060;-80
2022/10/19 01:43:16;;;;;;;28.00;12.90;;;;;;;8.35;100.00;102525.59;5047673;28;20102;-79
2022/10/19 01:45:49;;;;;;;21.48;12.35;;;;;;;8.31;100.00;102524.81;5050905;28;20033;-79
2022/10/19 01:48:20;;;;;;;23.33;11.35;;;;;;;8.32;100.00;102525.72;5062247;28;20028;-78
2022/10/19 01:51:30;;;;;;;25.08;11.98;;;;;;;8.33;100.00;102519.31;5076536;28;20059;-78
2022/10/19 01:53:59;;;;;;;22.05;11.95;;;;;;;8.27;100.00;102513.16;5009711;28;20042;-79
2022/10/19 01:56:29;;;;;;;28.27;12.00;;;;;;;8.16;100.00;102526.38;4988427;28;20034;-78
2022/10/19 01:58:57;;;;;;;24.40;11.15;;;;;;;8.23;100.00;102519.72;5040028;28;20102;-77
2022/10/19 02:01:26;;;;;;;22.48;11.90;;;;;;;8.13;100.00;102520.16;5055744;28;20029;-79
2022/10/19 02:03:53;;;;;;;27.92;10.75;;;;;;;8.16;100.00;102510.00;5044297;28;20535;-79
2022/10/19 02:06:19;;;;;;;26.67;12.77;;;;;;;8.22;100.00;102504.28;5043480;28;20037;-80
2022/10/19 02:08:47;;;;;;;22.75;12.23;;;;;;;8.13;100.00;102501.06;5052824;28;20037;-79
2022/10/19 02:11:14;;;;;;;35.80;11.43;;;;;;;8.00;100.00;102497.94;5057382;28;20037;-79
2022/10/19 02:13:41;;;;;;;19.27;10.55;;;;;;;7.99;100.00;102505.25;5059450;28;20016;-80
2022/10/19 02:16:13;;;;;;;21.92;11.13;;;;;;;7.99;100.00;102498.91;5029152;28;20036;-80
2022/10/19 02:18:43;;;;;;;16.60;10.43;;;;;;;7.96;100.00;102496.31;5058294;28;20481;-79
2022/10/19 02:21:09;;;;;;;28.45;10.80;;;;;;;8.02;100.00;102490.63;5058333;28;20045;-80
2022/10/19 02:23:35;;;;;;;19.50;11.10;;;;;;;8.04;100.00;102488.69;5025082;28;20033;-80
2022/10/19 02:26:01;;;;;;;25.67;11.00;;;;;;;8.08;100.00;102480.34;5060988;28;20447;-79
2022/10/19 02:28:28;;;;;;;22.98;10.75;;;;;;;8.08;100.00;102477.59;5056959;28;20064;-79
2022/10/19 02:30:54;;;;;;;28.67;11.13;;;;;;;7.99;100.00;102479.84;5058328;28;20486;-79
2022/10/19 02:33:20;;;;;;;29.95;11.00;;;;;;;7.96;100.00;102469.03;5059193;28;20060;-80
2022/10/19 02:35:46;;;;;;;27.77;11.23;;;;;;;7.82;100.00;102467.78;5056321;28;20040;-79
2022/10/19 02:38:17;;;;;;;22.00;10.38;;;;;;;7.93;100.00;102474.63;5033229;28;20033;-79
2022/10/19 02:41:06;;;;;;;29.10;11.60;;;;;;;7.89;100.00;102463.84;5056556;28;20036;-80
2022/10/19 02:43:36;;;;;;;20.92;10.63;;;;;;;7.86;100.00;102465.81;5032822;28;20048;-79
2022/10/19 02:46:08;;;;;;;30.52;10.95;;;;;;;7.78;100.00;102460.66;5037452;28;20029;-80
2022/10/19 02:48:36;;;;;;;20.90;10.23;;;;;;;7.78;100.00;102454.34;5073858;28;20036;-80
2022/10/19 02:51:02;;;;;;;24.27;10.43;;;;;;;7.70;100.00;102460.09;5057303;28;20035;-80
2022/10/19 02:53:28;;;;;;;22.23;9.95;;;;;;;7.60;100.00;102451.41;5058489;28;20088;-79
2022/10/19 02:55:53;;;;;;;15.18;9.60;;;;;;;7.56;100.00;102455.22;5061373;28;20043;-80
2022/10/19 02:58:19;;;;;;;23.02;10.48;;;;;;;7.67;100.00;102458.41;5047818;28;20035;-79
2022/10/19 03:00:44;;;;;;;25.25;10.68;;;;;;;7.69;100.00;102448.31;5023182;28;20060;-82
2022/10/19 03:03:10;;;;;;;25.13;11.27;;;;;;;7.69;100.00;102444.69;5026399;28;20037;-81
2022/10/19 03:05:35;;;;;;;21.73;10.23;;;;;;;7.63;100.00;102448.56;5042756;28;20115;-80
2022/10/19 03:08:01;;;;;;;17.60;9.95;;;;;;;7.66;100.00;102455.75;5059701;28;20033;-81
2022/10/19 03:10:26;;;;;;;23.80;10.25;;;;;;;7.57;100.00;102469.72;5055994;28;20025;-79
2022/10/19 03:12:52;;;;;;;18.23;9.98;;;;;;;7.44;100.00;102472.94;5024890;28;20029;-80
2022/10/19 03:15:18;;;;;;;19.17;9.50;;;;;;;7.48;100.00;102471.00;5047145;28;20065;-81
2022/10/19 03:17:44;;;;;;;24.00;9.85;;;;;;;7.55;100.00;102476.13;5039655;28;20029;-81
2022/10/19 03:20:10;;;;;;;31.38;10.20;;;;;;;7.48;100.00;102468.28;5058083;28;20451;-80
2022/10/19 03:22:36;;;;;;;26.83;10.90;;;;;;;7.49;100.00;102457.31;5042847;28;20463;-81
2022/10/19 03:25:02;;;;;;;21.90;10.43;;;;;;;7.46;100.00;102460.16;5059492;28;20036;-81
2022/10/19 03:27:27;;;;;;;26.58;10.85;;;;;;;7.43;100.00;102459.38;5043374;28;20031;-81
2022/10/19 03:29:53;;;;;;;23.95;10.73;;;;;;;7.47;100.00;102461.03;5036455;28;20488;-82
2022/10/19 03:32:18;;;;;;;19.20;11.15;;;;;;;7.48;100.00;102458.25;5046623;28;20052;-81
2022/10/19 03:34:44;;;;;;;20.30;10.35;;;;;;;7.50;100.00;102467.25;5066412;28;20117;-81
2022/10/19 03:37:09;;;;;;;18.90;9.75;;;;;;;7.46;100.00;102457.44;5062454;28;20037;-80
2022/10/19 03:39:35;;;;;;;28.27;10.70;;;;;;;7.53;100.00;102458.94;5043518;28;20059;-79
2022/10/19 03:42:00;;;;;;;17.13;9.82;;;;;;;7.46;100.00;102454.72;5050091;28;20033;-80
2022/10/19 03:44:26;;;;;;;28.08;10.32;;;;;;;7.43;100.00;102460.28;5044923;28;20040;-78
2022/10/19 03:46:51;;;;;;;18.15;9.13;;;;;;;7.41;100.00;102451.28;5056970;28;20110;-80
2022/10/19 03:49:17;;;;;;;23.45;9.82;;;;;;;7.20;100.00;102433.03;5043244;28;20113;-80
2022/10/19 03:51:42;;;;;;;26.90;10.85;;;;;;;7.21;100.00;102440.28;5023993;28;20045;-80
2022/10/19 03:54:13;;;;;;;14.05;9.65;;;;;;;7.22;100.00;102448.38;5039325;28;20036;-80
2022/10/19 03:56:39;;;;;;;22.10;9.38;;;;;;;7.21;100.00;102451.19;5060195;28;20091;-80
2022/10/19 03:59:05;;;;;;;17.63;10.00;;;;;;;7.29;100.00;102451.75;5043072;28;20431;-80
2022/10/19 04:01:35;;;;;;;29.30;10.40;;;;;;;7.32;100.00;102454.38;5060831;28;20020;-80
2022/10/19 04:04:04;;;;;;;25.50;10.93;;;;;;;7.25;100.00;102456.44;5043843;28;20021;-80
2022/10/19 04:06:32;;;;;;;19.17;10.57;;;;;;;7.25;100.00;102451.00;5058948;28;20438;-80
2022/10/19 04:08:59;;;;;;;23.55;9.80;;;;;;;7.33;100.00;102453.44;5061446;28;20029;-79
2022/10/19 04:11:27;;;;;;;22.13;10.52;;;;;;;7.29;100.00;102449.03;5062414;28;20028;-79
2022/10/19 04:13:55;;;;;;;24.35;10.45;;;;;;;7.26;100.00;102452.75;5060764;28;20551;-80
2022/10/19 04:16:22;;;;;;;27.63;8.73;;;;;;;7.34;100.00;102457.91;5062165;28;20029;-80
2022/10/19 04:18:47;;;;;;;25.60;9.90;;;;;;;7.28;100.00;102464.50;5044559;28;20425;-80
2022/10/19 04:21:23;;;;;;;21.10;10.13;;;;;;;7.34;100.00;102466.09;5061570;28;20139;-82
2022/10/19 04:23:52;;;;;;;29.77;10.15;;;;;;;7.28;100.00;102466.31;5074946;28;20048;-80
2022/10/19 04:26:19;;;;;;;20.90;9.82;;;;;;;7.33;100.00;102461.59;5058385;28;20025;-79
2022/10/19 04:28:45;;;;;;;25.67;9.73;;;;;;;7.36;100.00;102469.63;5067030;28;20040;-78
2022/10/19 04:31:11;;;;;;;20.52;8.70;;;;;;;7.27;100.00;102462.72;5066488;28;20082;-80
2022/10/19 04:33:37;;;;;;;20.23;8.95;;;;;;;7.27;100.00;102462.72;5059041;28;20055;-78
2022/10/19 04:36:06;;;;;;;17.67;8.48;;;;;;;7.31;100.00;102472.56;5052562;28;20433;-79
2022/10/19 04:38:32;;;;;;;19.73;8.85;;;;;;;7.24;100.00;102465.56;5046674;28;20060;-79
2022/10/19 04:41:03;;;;;;;19.25;8.90;;;;;;;7.27;100.00;102467.28;5069861;28;20041;-78
2022/10/19 04:43:29;;;;;;;22.92;8.27;;;;;;;7.26;100.00;102468.22;5039358;28;20489;-78
2022/10/19 04:45:55;;;;;;;14.38;8.15;;;;;;;7.23;100.00;102468.34;5066693;28;20091;-79
2022/10/19 04:48:20;;;;;;;26.50;9.15;;;;;;;7.20;100.00;102469.38;5061257;28;20077;-77
2022/10/19 04:50:45;;;;;;;25.67;10.43;;;;;;;7.28;100.00;102464.50;5042804;28;20090;-78
2022/10/19 04:53:11;;;;;;;23.23;9.20;;;;;;;7.28;100.00;102464.50;5058871;28;20110;-79
2022/10/19 04:55:42;;;;;;;25.63;9.07;;;;;;;7.31;100.00;102464.38;5043634;28;20127;-78
2022/10/19 04:58:08;;;;;;;27.55;9.18;;;;;;;7.08;100.00;102458.94;5025323;28;20123;-79
2022/10/19 05:00:36;;;;;;;22.05;9.27;;;;;;;7.02;100.00;102464.59;5043607;28;20060;-79
2022/10/19 05:03:01;;;;;;;19.13;9.63;;;;;;;7.06;100.00;102467.16;5042610;28;20024;-79
2022/10/19 05:05:26;;;;;;;21.02;9.30;;;;;;;7.05;100.00;102468.13;5055091;28;20025;-80
2022/10/19 05:07:52;;;;;;;23.65;9.80;;;;;;;7.07;100.00;102460.78;5057446;28;20085;-79
2022/10/19 05:10:17;;;;;;;20.30;8.95;;;;;;;7.08;100.00;102459.81;5026117;28;20025;-79
2022/10/19 05:12:43;;;;;;;25.48;10.23;;;;;;;7.14;100.00;102459.56;5026658;28;20065;-78
2022/10/19 05:15:09;;;;;;;20.25;8.90;;;;;;;7.17;100.00;102459.47;5059176;28;20112;-78
2022/10/19 05:17:34;;;;;;;19.33;8.93;;;;;;;6.99;100.00;102452.00;5043282;28;20040;-79
2022/10/19 05:20:00;;;;;;;14.75;8.25;;;;;;;6.97;100.00;102456.63;5054269;28;20439;-79
2022/10/19 05:22:25;;;;;;;20.83;9.30;;;;;;;7.01;100.00;102439.22;5027360;28;20111;-79
2022/10/19 05:24:50;;;;;;;23.20;9.18;;;;;;;7.02;100.00;102446.44;5060443;28;20044;-79
2022/10/19 05:27:16;;;;;;;24.88;9.48;;;;;;;6.95;100.00;102450.34;5039409;28;20076;-79
2022/10/19 05:29:41;;;;;;;20.95;8.75;;;;;;;6.87;100.00;102455.19;5049696;28;20041;-80
2022/10/19 05:32:07;;;;;;;17.63;8.55;;;;;;;6.85;100.00;102446.19;5036380;28;20039;-79
2022/10/19 05:34:32;;;;;;;17.23;8.68;;;;;;;6.80;100.00;102447.28;5056808;28;20045;-80
2022/10/19 05:36:58;;;;;;;13.82;8.05;;;;;;;6.69;100.00;102444.06;5040453;28;20120;-78
2022/10/19 05:39:23;;;;;;;12.10;7.85;;;;;;;6.66;100.00;102443.25;5055546;28;20045;-80
2022/10/19 05:41:49;;;;;;;17.02;8.70;;;;;;;6.50;100.00;102441.13;5024750;28;20049;-80
2022/10/19 05:44:20;;;;;;;20.70;8.48;;;;;;;6.61;100.00;102448.91;5045420;28;20029;-80
2022/10/19 05:46:47;;;;;;;17.10;8.00;;;;;;;6.61;100.00;102441.63;5061729;28;20397;-78
2022/10/19 05:49:14;;;;;;;21.70;8.15;;;;;;;6.67;100.00;102440.47;5061852;28;20036;-79
2022/10/19 05:51:40;;;;;;;18.95;9.13;;;;;;;6.70;100.00;102442.22;5059769;28;20494;-79
2022/10/19 05:54:06;;;;;;;15.45;9.27;;;;;;;6.76;100.00;102433.84;5057988;28;20114;-79
2022/10/19 05:56:32;;;;;;;15.02;9.57;;;;;;;6.83;100.00;102437.22;5027648;28;20032;-80
2022/10/19 05:59:00;;;;;;;25.75;9.50;;;;;;;6.77;100.00;102422.88;5059357;28;20543;-79
2022/10/19 06:01:28;;;;;;;16.75;8.70;;;;;;;6.77;100.00;102439.22;5042279;28;21586;-79
2022/10/19 06:03:56;;;;;;;21.83;8.57;;;;;;;6.74;100.00;102417.56;5008756;28;20083;-79
2022/10/19 06:06:22;;;;;;;19.27;9.02;;;;;;;6.75;100.00;102427.47;5070673;28;20451;-79
2022/10/19 06:08:49;;;;;;;15.50;8.93;;;;;;;6.82;100.00;102430.84;5059445;28;20033;-81
2022/10/19 06:11:24;;;;;;;26.02;9.80;;;;;;;6.74;100.00;102420.28;5043449;28;20059;-80
2022/10/19 06:13:52;;;;;;;21.92;8.30;;;;;;;6.64;100.00;102424.28;5043436;28;20117;-80
2022/10/19 06:16:22;;;;;;;16.00;9.38;;;;;;;6.73;100.00;102426.66;5045595;28;20576;-79
2022/10/19 06:18:48;;;;;;;24.33;9.55;;;;;;;6.61;100.00;102422.56;5025858;28;20150;-79
2022/10/19 06:21:17;;;;;;;24.95;10.20;;;;;;;6.77;100.00;102425.59;5059637;28;20138;-80
2022/10/19 06:23:42;;;;;;;30.63;11.07;;;;;;;6.84;100.00;102425.34;5060608;28;20385;-79
2022/10/19 06:26:10;;;;;;;21.33;9.75;;;;;;;6.90;100.00;102431.44;5057709;28;20024;-79
2022/10/19 06:28:38;;;;;;;22.77;10.20;;;;;;;6.90;100.00;102425.13;5054663;28;20119;-78
2022/10/19 06:31:04;;;;;;;21.33;9.55;;;;;;;6.93;100.00;102414.13;5042479;28;20033;-78
2022/10/19 06:33:30;;;;;;;25.42;9.95;;;;;;;6.90;100.00;102416.97;5057200;28;20469;-78
2022/10/19 06:36:03;;;;;;;26.02;10.32;;;;;;;6.95;100.00;102421.28;5026273;28;20511;-80
2022/10/19 06:38:28;;;;;;;;;;;;;;;6.98;100.00;102417.53;5060369;28;20039;-80
2022/10/19 06:40:58;;;;;;;28.75;10.80;;;;;;;7.01;100.00;102420.16;5055480;28;19912;-80
2022/10/19 06:43:23;;;;;;;20.65;10.05;;;;;;;7.05;100.00;102415.47;5049695;28;20041;-80
2022/10/19 06:45:49;;;;;;;27.02;10.55;;;;;;;7.09;100.00;102409.84;5041965;28;20033;-79
2022/10/19 06:48:14;;;;;;;23.77;10.40;;;;;;;7.19;100.00;102421.28;5043603;28;20476;-79
2022/10/19 06:50:39;;;;;;;25.27;10.20;;;;;;;7.25;100.00;102417.44;5059887;28;20037;-80
2022/10/19 06:53:05;;;;;;;27.05;11.25;;;;;;;7.29;100.00;102424.50;5060298;28;20479;-80
2022/10/19 06:55:30;;;;;;;25.05;10.05;;;;;;;7.37;100.00;102419.66;5043957;28;20486;-80
2022/10/19 06:57:58;;;;;;;26.17;10.77;;;;;;;7.41;100.00;102432.22;5026897;28;20048;-79
2022/10/19 07:00:23;;;;;;;23.10;10.32;;;;;;;7.50;100.00;102439.13;5024902;28;20053;-80
2022/10/19 07:02:48;;;;;;;19.85;10.15;;;;;;;7.56;100.00;102438.88;5042055;28;20506;-80
2022/10/19 07:05:14;;;;;;;22.95;10.50;;;;;;;7.66;100.00;102425.75;5058114;28;20120;-78
2022/10/19 07:07:39;;;;;;;28.27;11.02;;;;;;;7.79;100.00;102434.28;5059086;28;20086;-78
2022/10/19 07:10:05;;;;;;;22.35;10.18;;;;;;;7.91;100.00;102436.50;5057341;28;20060;-79
2022/10/19 07:12:30;;;;;;;27.05;10.93;;;;;;;7.98;100.00;102434.41;5041741;28;20044;-79
2022/10/19 07:14:56;;;;;;;21.73;11.00;;;;;;;8.06;100.00;102429.50;5041102;28;20115;-78
2022/10/19 07:17:22;;;;;;;30.23;11.35;;;;;;;8.05;100.00;102434.09;5026544;28;20049;-78
2022/10/19 07:19:47;;;;;;;26.08;10.65;;;;;;;8.23;100.00;102426.03;5024488;28;20095;-78
2022/10/19 07:22:13;;;;;;;30.13;10.73;;;;;;;8.27;100.00;102425.84;5040374;28;20060;-78
2022/10/19 07:24:38;;;;;;;23.08;10.52;;;;;;;8.34;100.00;102425.56;5059460;28;20082;-78
2022/10/19 07:27:04;;;;;;;25.65;10.68;;;;;;;8.40;100.00;102430.75;5041646;28;20052;-79
2022/10/19 07:29:30;;;;;;;25.67;10.25;;;;;;;8.50;100.00;102431.28;5042526;28;20033;-79
2022/10/19 07:31:55;;;;;;;23.10;11.40;;;;;;;8.72;100.00;102431.16;5041837;28;20450;-79
2022/10/19 07:34:20;;;;;;;22.23;11.13;;;;;;;8.79;100.00;102429.94;5038894;28;20048;-79
2022/10/19 07:36:46;;;;;;;26.33;11.10;;;;;;;9.06;100.00;102432.34;5057482;28;20037;-79
2022/10/19 07:39:15;;;;;;;24.23;10.60;;;;;;;9.28;100.00;102435.81;5040765;28;20044;-80
2022/10/19 07:41:42;;;;;;;23.20;9.32;;;;;;;9.32;100.00;102429.22;5055576;28;20048;-80
2022/10/19 07:44:08;;;;;;;19.63;9.32;;;;;;;9.45;100.00;102431.38;5043764;28;20056;-78
2022/10/19 07:46:35;;;;;;;25.17;9.40;;;;;;;9.64;100.00;102437.72;5043423;28;20553;-78
2022/10/19 07:49:03;;;;;;;27.85;9.82;;;;;;;9.84;100.00;102441.28;5050208;28;20083;-78
2022/10/19 07:51:28;;;;;;;21.77;9.27;;;;;;;9.96;100.00;102435.19;5038763;28;20424;-79
2022/10/19 07:53:54;;;;;;;26.77;8.27;;;;;;;10.03;100.00;102427.56;5053419;28;20088;-78
2022/10/19 07:56:24;;;;;;;26.25;8.68;;;;;;;10.22;100.00;102425.63;5054266;28;20091;-79
2022/10/19 07:58:51;;;;;;;25.05;9.43;;;;;;;10.30;100.00;102417.03;5047228;28;20060;-78
2022/10/19 08:01:24;;;;;;;15.70;7.93;;;;;;;10.38;100.00;102423.00;5022521;28;20442;-79
2022/10/19 08:03:52;;;;;;;27.73;8.32;;;;;;;10.53;100.00;102415.84;5057432;28;20385;-79
2022/10/19 08:06:19;;;;;;;19.20;7.40;;;;;;;10.59;100.00;102414.59;5057979;28;20029;-78
2022/10/19 08:08:46;;;;;;;20.80;7.30;;;;;;;10.54;100.00;102412.09;5040154;28;20037;-79
2022/10/19 08:11:13;;;;;;;28.40;8.40;;;;;;;10.60;100.00;102416.38;5039989;28;20494;-79
2022/10/19 08:13:39;;;;;;;16.65;6.95;;;;;;;10.84;100.00;102409.56;5038158;28;20515;-78
2022/10/19 08:16:18;;;;;;;26.38;7.70;;;;;;;10.93;100.00;102416.38;5057514;28;20049;-78
2022/10/19 08:18:44;;;;;;;26.25;7.53;;;;;;;11.33;100.00;102421.47;5059753;28;20396;-79
2022/10/19 08:21:09;;;;;;;26.40;7.20;;;;;;;11.45;100.00;102411.66;5061345;28;20053;-79
2022/10/19 08:23:35;;;;;;;17.45;7.22;;;;;;;11.37;100.00;102420.34;5025454;28;20116;-78
2022/10/19 08:26:00;;;;;;;12.55;5.63;;;;;;;11.66;100.00;102409.50;5039085;28;20133;-78
2022/10/19 08:28:25;;;;;;;18.08;5.88;;;;;;;11.54;100.00;102397.41;5042413;28;20033;-77
2022/10/19 08:30:56;;;;;;;22.52;7.38;;;;;;;11.67;100.00;102412.16;5043589;28;20082;-78
2022/10/19 08:33:22;;;;;;;18.23;6.47;;;;;;;12.00;100.00;102415.78;5043439;28;20083;-78
2022/10/19 08:35:48;;;;;;;20.13;5.97;;;;;;;12.31;100.00;102418.44;5042208;28;20068;-78
2022/10/19 08:38:14;;;;;;;14.18;5.57;;;;;;;11.91;100.00;102418.09;5025096;28;20392;-78
2022/10/19 08:40:43;;;;;;;20.48;5.97;;;;;;;12.34;100.00;102413.72;5041361;28;20392;-78
2022/10/19 08:43:23;;;;;;;24.58;7.72;;;;;;;12.50;100.00;102409.94;5056663;28;20036;-77
2022/10/19 08:46:13;;;;;;;16.98;5.63;;;;;;;12.78;100.00;102399.94;5052759;28;20033;-78
2022/10/19 08:48:41;;;;;;;17.55;5.78;;;;;;;13.12;100.00;102408.78;5037688;28;20026;-77
2022/10/19 08:51:11;;;;;;;18.05;6.53;;;;;;;13.24;100.00;102399.72;5030609;28;20033;-79
2022/10/19 08:53:53;;;;;;;16.02;5.10;;;;;;;13.44;100.00;102394.81;5041396;28;20051;-78
2022/10/19 08:56:41;;;;;;;21.75;5.75;;;;;;;13.24;100.00;102391.47;5040867;28;20121;-78
2022/10/19 08:59:22;;;;;;;13.70;5.05;;;;;;;13.85;100.00;102388.38;5040951;28;20044;-78
2022/10/19 09:01:55;;;;;;;15.35;5.10;;;;;;;13.73;100.00;102384.59;5042950;28;20043;-79
2022/10/19 09:04:34;;;;;;;17.67;5.95;;;;;;;13.75;100.00;102387.25;5058779;28;20128;-80
2022/10/19 09:07:08;;;;;;;13.60;5.65;;;;;;;13.97;100.00;102394.94;5055201;28;20033;-78
2022/10/19 09:09:42;;;;;;;13.10;5.43;;;;;;;14.27;100.00;102388.25;5057606;28;20041;-78
2022/10/19 09:12:13;;;;;;;24.27;6.65;;;;;;;14.02;100.00;102380.81;5059288;28;20025;-78
2022/10/19 09:14:56;;;;;;;13.55;4.68;;;;;;;14.15;100.00;102379.88;5060420;28;20484;-79
2022/10/19 09:17:24;;;;;;;18.77;4.85;;;;;;;14.52;100.00;102365.34;5059035;28;20062;-79
2022/10/19 09:19:50;;;;;;;11.00;4.30;;;;;;;14.69;100.00;102361.41;5059342;28;20060;-79
2022/10/19 09:22:31;;;;;;;13.32;4.13;;;;;;;14.91;100.00;102368.13;5055713;28;20029;-79
2022/10/19 09:25:02;;;;;;;19.30;3.95;;;;;;;14.87;100.00;102362.84;5055017;28;20075;-79
2022/10/19 09:27:39;;;;;;;21.63;4.07;;;;;;;14.52;100.00;102366.22;5041309;28;20029;-78
2022/10/19 09:30:14;;;;;;;13.73;4.05;;;;;;;14.51;100.00;102370.00;5058690;28;20381;-78
2022/10/19 09:32:40;;;;;;;13.77;4.03;;;;;;;14.87;100.00;102368.34;5054777;28;20025;-79
2022/10/19 09:35:30;;;;;;;14.63;3.97;;;;;;;14.93;100.00;102367.00;5038185;28;20409;-79
2022/10/19 09:37:57;;;;;;;17.00;3.95;;;;;;;14.26;100.00;102368.06;5055675;28;20049;-78
2022/10/19 09:40:29;;;;;;;12.82;3.53;;;;;;;14.37;100.00;102370.09;5047074;28;20072;-78
2022/10/19 09:43:01;;;;;;;17.23;4.13;;;;;;;14.87;100.00;102368.34;5058255;28;20376;-78
2022/10/19 09:46:03;;;;;;;17.80;3.50;;;;;;;15.13;100.00;102375.69;5041303;28;20821;-78
2022/10/19 09:48:38;;;;;;;14.30;3.30;;;;;;;15.46;100.00;102372.28;5037419;28;20028;-78
2022/10/19 09:51:11;;;;;;;13.90;3.55;;;;;;;14.84;100.00;102362.19;5043645;28;20110;-78
2022/10/19 09:53:37;;;;;;;14.60;4.18;;;;;;;15.14;100.00;102352.63;5037634;28;20033;-79
2022/10/19 09:56:06;;;;;;;14.95;3.30;;;;;;;14.92;100.00;102356.09;5022100;28;20036;-78
2022/10/19 09:58:33;;;;;;;15.93;3.63;;;;;;;14.32;100.00;102353.00;5055598;28;20191;-79
2022/10/19 10:00:59;;;;;;;18.02;3.20;;;;;;;14.23;100.00;102349.03;5041017;28;20057;-78
2022/10/19 10:03:35;;;;;;;9.98;3.20;;;;;;;14.14;100.00;102345.03;5006380;28;20370;-79
2022/10/19 10:06:04;;;;;;;11.23;2.92;;;;;;;13.96;100.00;102333.44;5038465;28;20075;-79
2022/10/19 10:08:33;;;;;;;13.52;3.92;;;;;;;14.32;100.00;102341.97;5040349;28;20486;-78
2022/10/19 10:11:05;;;;;;;11.77;3.22;;;;;;;14.86;100.00;102352.78;5056511;28;20067;-78
2022/10/19 10:13:36;;;;;;;10.82;3.40;;;;;;;14.93;100.00;102344.06;5055442;28;20041;-78
2022/10/19 10:16:05;;;;;;;12.98;3.47;;;;;;;14.88;100.00;102339.75;5055520;28;20040;-78
2022/10/19 10:18:37;;;;;;;20.85;3.78;;;;;;;14.78;100.00;102341.44;5057561;28;20029;-78
2022/10/19 10:21:10;;;;;;;13.73;3.50;;;;;;;14.82;100.00;102334.72;5055758;28;20382;-78
2022/10/19 10:23:37;;;;;;;16.02;4.03;;;;;;;14.67;100.00;102324.78;5072941;28;20400;-78
2022/10/19 10:26:04;;;;;;;8.05;3.58;;;;;;;14.51;100.00;102325.88;5055686;28;20056;-78
2022/10/19 10:28:30;;;;;;;15.63;4.40;;;;;;;15.00;100.00;102321.44;5057841;28;20128;-78
2022/10/19 10:31:03;;;;;;;13.98;4.22;;;;;;;15.07;100.00;102330.16;5036436;28;20068;-77
2022/10/19 10:33:31;;;;;;;14.52;4.05;;;;;;;14.79;100.00;102332.19;5023262;28;20044;-78
2022/10/19 10:36:03;;;;;;;12.70;4.10;;;;;;;14.58;100.00;102328.22;5040518;28;20044;-78
2022/10/19 10:38:35;;;;;;;11.27;3.63;;;;;;;14.87;100.00;102324.22;5050084;28;20028;-78
2022/10/19 10:41:11;;;;;;;16.90;4.93;;;;;;;15.03;100.00;102318.44;5043837;28;20104;-77
2022/10/19 10:43:48;;;;;;;11.98;3.80;;;;;;;15.05;100.00;102323.84;5060950;28;20488;-77
2022/10/19 10:46:19;;;;;;;16.25;4.13;;;;;;;15.29;100.00;102325.75;5061838;28;20525;-78
2022/10/19 10:48:56;;;;;;;21.70;4.70;;;;;;;15.39;100.00;102321.28;5061825;28;20428;-78
2022/10/19 10:51:31;;;;;;;12.10;4.43;;;;;;;15.47;100.00;102312.44;5059816;28;20029;-79
2022/10/19 10:54:17;;;;;;;10.35;4.13;;;;;;;15.37;100.00;102310.38;5059023;28;20476;-78
2022/10/19 10:56:53;;;;;;;12.10;3.83;;;;;;;15.86;100.00;102296.56;5063128;28;20116;-78
2022/10/19 10:59:34;;;;;;;13.68;4.30;;;;;;;15.31;100.00;102296.16;5040821;28;20064;-78
2022/10/19 11:02:23;;;;;;;15.73;4.40;;;;;;;14.98;100.00;102293.06;5056560;28;20401;-78
2022/10/19 11:04:58;;;;;;;19.55;3.92;;;;;;;15.03;100.00;102292.72;5055527;28;20025;-78
2022/10/19 11:07:26;;;;;;;12.40;4.15;;;;;;;15.16;100.00;102288.03;5059013;28;20048;-78
2022/10/19 11:09:57;;;;;;;22.83;4.50;;;;;;;14.74;100.00;102276.50;5058193;28;20037;-78
2022/10/19 11:12:38;;;;;;;14.52;4.35;;;;;;;14.91;100.00;102278.00;5051613;28;20064;-79
2022/10/19 11:15:38;;;;;;;14.43;3.92;;;;;;;15.08;100.00;102273.94;5055250;28;20210;-80
2022/10/19 11:18:14;;;;;;;20.08;4.07;;;;;;;15.18;100.00;102277.78;5057034;28;20117;-78
2022/10/19 11:20:48;;;;;;;17.30;3.20;;;;;;;14.81;100.00;102274.16;5040459;28;20045;-78
2022/10/19 11:23:23;;;;;;;15.48;3.22;;;;;;;15.24;100.00;102274.53;5057789;28;20041;-77